METAR AND TAF INFORMATION
METAR FOR EVRA
ADDS - METARS form results

(0122 UTC 11 August 2020)
Data provider http://aviationweather.gov/metar/data/
 
METAR text: EVRA 110120Z 34001KT CAVOK 10/10 Q1022 NOSIG
Conditions at: EVRA (RIGA AIRPORT , LV) observed 0120 UTC 11 August 2020
Temperature: 10.0°C (50°F)
Dewpoint: 10.0°C (50°F) [RH = 100%]
Pressure (altimeter): 30.18 inches Hg (1022.0 mb)
Winds: from the NNW (340 degrees) at 1 MPH (1 knots; 0.5 m/s)
Visibility: 6 or more miles (10+ km)
Ceiling: ceiling and visibility are OK
Clouds: unknown
Weather: no significant weather observed at this time

METAR text: EVRA 110050Z 34002KT CAVOK 11/10 Q1022 NOSIG
Conditions at: EVRA (RIGA AIRPORT , LV) observed 0050 UTC 11 August 2020
Temperature: 11.0°C (52°F)
Dewpoint: 10.0°C (50°F) [RH = 94%]
Pressure (altimeter): 30.18 inches Hg (1022.0 mb)
Winds: from the NNW (340 degrees) at 2 MPH (2 knots; 1.0 m/s)
Visibility: 6 or more miles (10+ km)
Ceiling: ceiling and visibility are OK
Clouds: unknown
Weather: no significant weather observed at this time

Forecast for: EVRA (RIGA AIRPORT , LV)
Text: TAF EVRA 102304Z 1100/1124 VRB02KT CAVOK
Forecast period: 0000 to 0600 UTC 11 August 2020
Forecast type: FROM: standard forecast or significant change
Winds: variable direction winds at 2 MPH (2 knots; 1.0 m/s)
Visibility: 6 or more miles (10+ km)
Ceiling: unknown
Clouds: missing
Weather: NSW  (no significant weather)
Text: BECMG 1106/1108 36007KT
Forecast period: 0600 UTC 11 August 2020 to 0000 UTC 12 August 2020
Forecast type: BECOMING: Conditions expected to become as follows by 0800 UTC 11 August 2020
Winds: from the N (360 degrees) at 8 MPH (7 knots; 3.6 m/s)
Visibility: 6 or more miles (10+ km)
Ceiling: unknown
Clouds: missing
Weather: NSW  (no significant weather)
Text: TEMPO 1110/1115 36012G27KT
Forecast period: 1000 to 1500 UTC 11 August 2020
Forecast type: TEMPORARY: The following changes expected for less than half the time period
Winds: from the N (360 degrees) at 14 MPH (12 knots; 6.2 m/s)
gusting to 31 MPH (27 knots; 13.9 m/s)
Visibility: missing
Ceiling: unknown
Clouds: missing
Weather: no significant weather forecast for this period

 AIRPORT MAP

 RUNWAY INFORMATION
Runway 18 Runway length 10499 ft Runway width 148 ft
Runway elevation 31 ft Runway displaced threshold 0 ft Runway heading 185
Runway 36 Runway length 10499 ft Runway width 148 ft
Runway elevation 34 ft Runway displaced threshold 0 ft Runway heading 5

 AIRPORT FREQUENCIES
Type APP Name APP Frequency 129.925 MHZ
Type ATIS Name ATIS Frequency 121.2 MHZ
Type GND Name Riga Groun Frequency 118.8 MHZ
Type MISC Name Riga Apron Frequency 131.6 MHZ
Type TWR Name TWR Frequency 118.1 MHZ

 AIRPORT NEAR NAVIGATION AIDS
Type VOR-DME Name Riga Frequency 112050 KHZ
Type VOR-DME Name Riga Frequency 113700 KHZ



Powered by Virtual Airlines Manager [v2.6.2]